sensor_id;sensor_type;location;lat;lon;timestamp;temperature;humidity
18043;DHT22;9146;48.074;11.968;2022-10-31T00:02:06;10.10;99.90
18043;DHT22;9146;48.074;11.968;2022-10-31T00:04:35;10.00;99.90
18043;DHT22;9146;48.074;11.968;2022-10-31T00:07:02;10.00;99.90
18043;DHT22;9146;48.074;11.968;2022-10-31T00:09:28;9.90;99.90
18043;DHT22;9146;48.074;11.968;2022-10-31T00:11:55;9.90;99.90
18043;DHT22;9146;48.074;11.968;2022-10-31T00:14:22;9.90;99.90
18043;DHT22;9146;48.074;11.968;2022-10-31T00:16:49;9.80;99.90
18043;DHT22;9146;48.074;11.968;2022-10-31T00:19:16;9.80;99.90
18043;DHT22;9146;48.074;11.968;2022-10-31T00:21:44;9.80;99.90
18043;DHT22;9146;48.074;11.968;2022-10-31T00:24:11;9.80;99.90
18043;DHT22;9146;48.074;11.968;2022-10-31T00:26:38;9.70;99.90
18043;DHT22;9146;48.074;11.968;2022-10-31T00:29:05;9.70;99.90
18043;DHT22;9146;48.074;11.968;2022-10-31T00:31:32;9.70;99.90
18043;DHT22;9146;48.074;11.968;2022-10-31T00:33:58;9.60;99.90
18043;DHT22;9146;48.074;11.968;2022-10-31T00:36:28;9.50;99.90
18043;DHT22;9146;48.074;11.968;2022-10-31T00:38:58;9.60;99.90
18043;DHT22;9146;48.074;11.968;2022-10-31T00:41:25;9.50;99.90
18043;DHT22;9146;48.074;11.968;2022-10-31T00:43:51;9.50;99.90
18043;DHT22;9146;48.074;11.968;2022-10-31T00:46:18;9.50;99.90
18043;DHT22;9146;48.074;11.968;2022-10-31T00:48:45;9.50;99.90
18043;DHT22;9146;48.074;11.968;2022-10-31T00:51:12;9.50;99.90
18043;DHT22;9146;48.074;11.968;2022-10-31T00:53:39;9.50;99.90
18043;DHT22;9146;48.074;11.968;2022-10-31T00:56:08;9.60;99.90
18043;DHT22;9146;48.074;11.968;2022-10-31T00:58:35;9.60;99.90
18043;DHT22;9146;48.074;11.968;2022-10-31T01:01:02;9.60;99.90
18043;DHT22;9146;48.074;11.968;2022-10-31T01:03:31;9.50;99.90
18043;DHT22;9146;48.074;11.968;2022-10-31T01:05:59;9.50;99.90
18043;DHT22;9146;48.074;11.968;2022-10-31T01:08:27;9.50;99.90
18043;DHT22;9146;48.074;11.968;2022-10-31T01:11:02;9.50;99.90
18043;DHT22;9146;48.074;11.968;2022-10-31T01:13:31;9.50;99.90
18043;DHT22;9146;48.074;11.968;2022-10-31T01:16:00;9.50;99.90
18043;DHT22;9146;48.074;11.968;2022-10-31T01:18:27;9.50;99.90
18043;DHT22;9146;48.074;11.968;2022-10-31T01:20:58;9.60;99.90
18043;DHT22;9146;48.074;11.968;2022-10-31T01:23:25;9.60;99.90
18043;DHT22;9146;48.074;11.968;2022-10-31T01:26:00;9.60;99.90
18043;DHT22;9146;48.074;11.968;2022-10-31T01:28:27;9.50;99.90
18043;DHT22;9146;48.074;11.968;2022-10-31T01:30:55;9.60;99.90
18043;DHT22;9146;48.074;11.968;2022-10-31T01:33:26;9.60;99.90
18043;DHT22;9146;48.074;11.968;2022-10-31T01:35:53;9.50;99.90
18043;DHT22;9146;48.074;11.968;2022-10-31T01:38:19;9.40;99.90
18043;DHT22;9146;48.074;11.968;2022-10-31T01:40:46;9.40;99.90
18043;DHT22;9146;48.074;11.968;2022-10-31T01:43:14;9.40;99.90
18043;DHT22;9146;48.074;11.968;2022-10-31T01:45:42;9.30;99.90
18043;DHT22;9146;48.074;11.968;2022-10-31T01:48:14;9.30;99.90
18043;DHT22;9146;48.074;11.968;2022-10-31T01:50:43;9.30;99.90
18043;DHT22;9146;48.074;11.968;2022-10-31T01:53:12;9.20;99.90
18043;DHT22;9146;48.074;11.968;2022-10-31T01:55:41;9.20;99.90
18043;DHT22;9146;48.074;11.968;2022-10-31T01:58:13;9.10;99.90
18043;DHT22;9146;48.074;11.968;2022-10-31T02:00:44;9.10;99.90
18043;DHT22;9146;48.074;11.968;2022-10-31T02:03:14;9.10;99.90
18043;DHT22;9146;48.074;11.968;2022-10-31T02:05:42;9.10;99.90
18043;DHT22;9146;48.074;11.968;2022-10-31T02:08:14;9.10;99.90
18043;DHT22;9146;48.074;11.968;2022-10-31T02:10:43;9.10;99.90
18043;DHT22;9146;48.074;11.968;2022-10-31T02:13:11;9.00;99.90
18043;DHT22;9146;48.074;11.968;2022-10-31T02:15:40;9.00;99.90
18043;DHT22;9146;48.074;11.968;2022-10-31T02:18:07;9.00;99.90
18043;DHT22;9146;48.074;11.968;2022-10-31T02:20:42;9.00;99.90
18043;DHT22;9146;48.074;11.968;2022-10-31T02:26:53;9.20;99.90
18043;DHT22;9146;48.074;11.968;2022-10-31T02:29:59;9.20;99.90
18043;DHT22;9146;48.074;11.968;2022-10-31T02:32:39;9.30;99.90
18043;DHT22;9146;48.074;11.968;2022-10-31T02:35:13;9.20;99.90
18043;DHT22;9146;48.074;11.968;2022-10-31T02:37:48;9.30;99.90
18043;DHT22;9146;48.074;11.968;2022-10-31T02:40:23;9.30;99.90
18043;DHT22;9146;48.074;11.968;2022-10-31T02:42:57;9.20;99.90
18043;DHT22;9146;48.074;11.968;2022-10-31T02:45:29;9.10;99.90
18043;DHT22;9146;48.074;11.968;2022-10-31T02:48:03;9.10;99.90
18043;DHT22;9146;48.074;11.968;2022-10-31T02:50:34;9.00;99.90
18043;DHT22;9146;48.074;11.968;2022-10-31T02:53:02;9.00;99.90
18043;DHT22;9146;48.074;11.968;2022-10-31T02:55:53;9.00;99.90
18043;DHT22;9146;48.074;11.968;2022-10-31T02:58:22;9.00;99.90
18043;DHT22;9146;48.074;11.968;2022-10-31T03:01:06;9.10;99.90
18043;DHT22;9146;48.074;11.968;2022-10-31T03:03:46;9.00;99.90
18043;DHT22;9146;48.074;11.968;2022-10-31T03:06:20;8.90;99.90
18043;DHT22;9146;48.074;11.968;2022-10-31T03:08:55;8.90;99.90
18043;DHT22;9146;48.074;11.968;2022-10-31T03:11:29;8.90;99.90
18043;DHT22;9146;48.074;11.968;2022-10-31T03:14:02;8.80;99.90
18043;DHT22;9146;48.074;11.968;2022-10-31T03:16:37;8.70;99.90
18043;DHT22;9146;48.074;11.968;2022-10-31T03:19:09;8.70;99.90
18043;DHT22;9146;48.074;11.968;2022-10-31T03:21:41;8.70;99.90
18043;DHT22;9146;48.074;11.968;2022-10-31T03:24:10;8.60;99.90
18043;DHT22;9146;48.074;11.968;2022-10-31T03:26:42;8.60;99.90
18043;DHT22;9146;48.074;11.968;2022-10-31T03:29:12;8.60;99.90
18043;DHT22;9146;48.074;11.968;2022-10-31T03:31:44;8.70;99.90
18043;DHT22;9146;48.074;11.968;2022-10-31T03:34:15;8.70;99.90
18043;DHT22;9146;48.074;11.968;2022-10-31T03:36:45;8.70;99.90
18043;DHT22;9146;48.074;11.968;2022-10-31T03:39:14;8.70;99.90
18043;DHT22;9146;48.074;11.968;2022-10-31T03:41:44;8.70;99.90
18043;DHT22;9146;48.074;11.968;2022-10-31T03:44:16;8.70;99.90
18043;DHT22;9146;48.074;11.968;2022-10-31T03:46:43;8.70;99.90
18043;DHT22;9146;48.074;11.968;2022-10-31T03:49:11;8.70;99.90
18043;DHT22;9146;48.074;11.968;2022-10-31T03:51:43;8.60;99.90
18043;DHT22;9146;48.074;11.968;2022-10-31T03:54:15;8.60;99.90
18043;DHT22;9146;48.074;11.968;2022-10-31T03:56:50;8.70;99.90
18043;DHT22;9146;48.074;11.968;2022-10-31T03:59:22;8.70;99.90
18043;DHT22;9146;48.074;11.968;2022-10-31T04:01:53;8.70;99.90
18043;DHT22;9146;48.074;11.968;2022-10-31T04:04:22;8.70;99.90
18043;DHT22;9146;48.074;11.968;2022-10-31T04:06:51;8.70;99.90
18043;DHT22;9146;48.074;11.968;2022-10-31T04:09:19;8.70;99.90
18043;DHT22;9146;48.074;11.968;2022-10-31T04:11:50;8.70;99.90
18043;DHT22;9146;48.074;11.968;2022-10-31T04:14:18;8.60;99.90
18043;DHT22;9146;48.074;11.968;2022-10-31T04:16:45;8.60;99.90
18043;DHT22;9146;48.074;11.968;2022-10-31T04:19:12;8.50;99.90
18043;DHT22;9146;48.074;11.968;2022-10-31T04:21:40;8.50;99.90
18043;DHT22;9146;48.074;11.968;2022-10-31T04:24:10;8.50;99.90
18043;DHT22;9146;48.074;11.968;2022-10-31T04:26:37;8.50;99.90
18043;DHT22;9146;48.074;11.968;2022-10-31T04:29:04;8.40;99.90
18043;DHT22;9146;48.074;11.968;2022-10-31T04:31:31;8.40;99.90
18043;DHT22;9146;48.074;11.968;2022-10-31T04:33:58;8.40;99.90
18043;DHT22;9146;48.074;11.968;2022-10-31T04:36:25;8.30;99.90
18043;DHT22;9146;48.074;11.968;2022-10-31T04:38:52;8.30;99.90
18043;DHT22;9146;48.074;11.968;2022-10-31T04:41:20;8.30;99.90
18043;DHT22;9146;48.074;11.968;2022-10-31T04:43:47;8.30;99.90
18043;DHT22;9146;48.074;11.968;2022-10-31T04:46:14;8.30;99.90
18043;DHT22;9146;48.074;11.968;2022-10-31T04:48:40;8.40;99.90
18043;DHT22;9146;48.074;11.968;2022-10-31T04:51:07;8.40;99.90
18043;DHT22;9146;48.074;11.968;2022-10-31T04:53:34;8.50;99.90
18043;DHT22;9146;48.074;11.968;2022-10-31T04:56:01;8.60;99.90
18043;DHT22;9146;48.074;11.968;2022-10-31T04:58:29;8.70;99.90
18043;DHT22;9146;48.074;11.968;2022-10-31T05:00:56;8.70;99.90
18043;DHT22;9146;48.074;11.968;2022-10-31T05:03:23;8.70;99.90
18043;DHT22;9146;48.074;11.968;2022-10-31T05:05:50;8.70;99.90
18043;DHT22;9146;48.074;11.968;2022-10-31T05:08:17;8.70;99.90
18043;DHT22;9146;48.074;11.968;2022-10-31T05:10:44;8.60;99.90
18043;DHT22;9146;48.074;11.968;2022-10-31T05:13:11;8.50;99.90
18043;DHT22;9146;48.074;11.968;2022-10-31T05:15:41;8.40;99.90
18043;DHT22;9146;48.074;11.968;2022-10-31T05:18:08;8.40;99.90
18043;DHT22;9146;48.074;11.968;2022-10-31T05:20:35;8.50;99.90
18043;DHT22;9146;48.074;11.968;2022-10-31T05:23:02;8.60;99.90
18043;DHT22;9146;48.074;11.968;2022-10-31T05:25:29;8.60;99.90
18043;DHT22;9146;48.074;11.968;2022-10-31T05:27:56;8.60;99.90
18043;DHT22;9146;48.074;11.968;2022-10-31T05:30:25;8.60;99.90
18043;DHT22;9146;48.074;11.968;2022-10-31T05:32:54;8.50;99.90
18043;DHT22;9146;48.074;11.968;2022-10-31T05:35:22;8.40;99.90
18043;DHT22;9146;48.074;11.968;2022-10-31T05:37:49;8.20;99.90
18043;DHT22;9146;48.074;11.968;2022-10-31T05:40:18;8.20;99.90
18043;DHT22;9146;48.074;11.968;2022-10-31T05:42:45;8.20;99.90
18043;DHT22;9146;48.074;11.968;2022-10-31T05:45:13;8.20;99.90
18043;DHT22;9146;48.074;11.968;2022-10-31T05:47:41;8.20;99.90
18043;DHT22;9146;48.074;11.968;2022-10-31T05:50:09;8.20;99.90
18043;DHT22;9146;48.074;11.968;2022-10-31T05:52:36;8.30;99.90
18043;DHT22;9146;48.074;11.968;2022-10-31T05:55:03;8.30;99.90
18043;DHT22;9146;48.074;11.968;2022-10-31T05:57:32;8.20;99.90
18043;DHT22;9146;48.074;11.968;2022-10-31T05:59:59;8.20;99.90
18043;DHT22;9146;48.074;11.968;2022-10-31T06:02:26;8.20;99.90
18043;DHT22;9146;48.074;11.968;2022-10-31T06:04:57;8.10;99.90
18043;DHT22;9146;48.074;11.968;2022-10-31T06:07:25;8.20;99.90
18043;DHT22;9146;48.074;11.968;2022-10-31T06:09:52;8.30;99.90
18043;DHT22;9146;48.074;11.968;2022-10-31T06:12:19;8.30;99.90
18043;DHT22;9146;48.074;11.968;2022-10-31T06:14:46;8.30;99.90
18043;DHT22;9146;48.074;11.968;2022-10-31T06:17:12;8.30;99.90
18043;DHT22;9146;48.074;11.968;2022-10-31T06:19:39;8.30;99.90
18043;DHT22;9146;48.074;11.968;2022-10-31T06:22:06;8.30;99.90
18043;DHT22;9146;48.074;11.968;2022-10-31T06:24:34;8.30;99.90
18043;DHT22;9146;48.074;11.968;2022-10-31T06:27:01;8.30;99.90
18043;DHT22;9146;48.074;11.968;2022-10-31T06:29:28;8.30;99.90
18043;DHT22;9146;48.074;11.968;2022-10-31T06:31:55;8.30;99.90
18043;DHT22;9146;48.074;11.968;2022-10-31T06:34:22;8.40;99.90
18043;DHT22;9146;48.074;11.968;2022-10-31T06:36:49;8.40;99.90
18043;DHT22;9146;48.074;11.968;2022-10-31T06:39:16;8.40;99.90
18043;DHT22;9146;48.074;11.968;2022-10-31T06:41:44;8.40;99.90
18043;DHT22;9146;48.074;11.968;2022-10-31T06:44:17;8.40;99.90
18043;DHT22;9146;48.074;11.968;2022-10-31T06:46:46;8.50;99.90
18043;DHT22;9146;48.074;11.968;2022-10-31T06:49:12;8.50;99.90
18043;DHT22;9146;48.074;11.968;2022-10-31T06:51:39;8.60;99.90
18043;DHT22;9146;48.074;11.968;2022-10-31T06:54:06;8.70;99.90
18043;DHT22;9146;48.074;11.968;2022-10-31T06:56:33;8.80;99.90
18043;DHT22;9146;48.074;11.968;2022-10-31T06:59:06;8.90;99.90
18043;DHT22;9146;48.074;11.968;2022-10-31T07:01:33;9.00;99.90
18043;DHT22;9146;48.074;11.968;2022-10-31T07:04:00;9.10;99.90
18043;DHT22;9146;48.074;11.968;2022-10-31T07:06:27;9.20;99.90
18043;DHT22;9146;48.074;11.968;2022-10-31T07:08:54;9.20;99.90
18043;DHT22;9146;48.074;11.968;2022-10-31T07:11:21;9.30;99.90
18043;DHT22;9146;48.074;11.968;2022-10-31T07:13:47;9.30;99.90
18043;DHT22;9146;48.074;11.968;2022-10-31T07:16:16;9.40;99.90
18043;DHT22;9146;48.074;11.968;2022-10-31T07:18:42;9.40;99.90
18043;DHT22;9146;48.074;11.968;2022-10-31T07:21:09;9.50;99.90
18043;DHT22;9146;48.074;11.968;2022-10-31T07:23:36;9.50;99.90
18043;DHT22;9146;48.074;11.968;2022-10-31T07:26:03;9.60;99.90
18043;DHT22;9146;48.074;11.968;2022-10-31T07:28:30;9.70;99.90
18043;DHT22;9146;48.074;11.968;2022-10-31T07:30:57;9.70;99.90
18043;DHT22;9146;48.074;11.968;2022-10-31T07:33:25;9.80;99.90
18043;DHT22;9146;48.074;11.968;2022-10-31T07:35:53;9.80;99.90
18043;DHT22;9146;48.074;11.968;2022-10-31T07:38:20;9.90;99.90
18043;DHT22;9146;48.074;11.968;2022-10-31T07:40:50;9.90;99.90
18043;DHT22;9146;48.074;11.968;2022-10-31T07:43:18;9.90;99.90
18043;DHT22;9146;48.074;11.968;2022-10-31T07:45:49;10.00;99.90
18043;DHT22;9146;48.074;11.968;2022-10-31T07:48:16;10.00;99.90
18043;DHT22;9146;48.074;11.968;2022-10-31T07:50:44;10.00;99.90
18043;DHT22;9146;48.074;11.968;2022-10-31T07:53:12;10.10;99.90
18043;DHT22;9146;48.074;11.968;2022-10-31T07:55:40;10.10;99.90
18043;DHT22;9146;48.074;11.968;2022-10-31T07:58:08;10.10;99.90
18043;DHT22;9146;48.074;11.968;2022-10-31T08:00:36;10.20;99.90
18043;DHT22;9146;48.074;11.968;2022-10-31T08:03:05;10.20;99.90
18043;DHT22;9146;48.074;11.968;2022-10-31T08:05:32;10.20;99.90
18043;DHT22;9146;48.074;11.968;2022-10-31T08:08:01;10.30;99.90
18043;DHT22;9146;48.074;11.968;2022-10-31T08:10:28;10.40;99.90
18043;DHT22;9146;48.074;11.968;2022-10-31T08:12:56;10.50;99.90
18043;DHT22;9146;48.074;11.968;2022-10-31T08:15:23;10.50;99.90
18043;DHT22;9146;48.074;11.968;2022-10-31T08:17:51;10.60;99.90
18043;DHT22;9146;48.074;11.968;2022-10-31T08:20:18;10.70;99.90
18043;DHT22;9146;48.074;11.968;2022-10-31T08:22:53;10.80;99.90
18043;DHT22;9146;48.074;11.968;2022-10-31T08:25:22;11.00;99.90
18043;DHT22;9146;48.074;11.968;2022-10-31T08:27:50;11.10;99.90
18043;DHT22;9146;48.074;11.968;2022-10-31T08:30:17;11.20;99.90
18043;DHT22;9146;48.074;11.968;2022-10-31T08:32:45;11.20;99.90
18043;DHT22;9146;48.074;11.968;2022-10-31T08:35:12;11.30;99.90
18043;DHT22;9146;48.074;11.968;2022-10-31T08:37:39;11.40;99.90
18043;DHT22;9146;48.074;11.968;2022-10-31T08:40:07;11.50;99.90
18043;DHT22;9146;48.074;11.968;2022-10-31T08:42:35;11.60;99.90
18043;DHT22;9146;48.074;11.968;2022-10-31T08:45:03;11.80;99.90
18043;DHT22;9146;48.074;11.968;2022-10-31T08:47:29;11.90;99.90
18043;DHT22;9146;48.074;11.968;2022-10-31T08:49:56;12.00;99.90
18043;DHT22;9146;48.074;11.968;2022-10-31T08:52:24;12.10;99.90
18043;DHT22;9146;48.074;11.968;2022-10-31T08:54:51;12.20;99.90
18043;DHT22;9146;48.074;11.968;2022-10-31T08:57:18;12.30;99.90
18043;DHT22;9146;48.074;11.968;2022-10-31T08:59:47;12.30;99.90
18043;DHT22;9146;48.074;11.968;2022-10-31T09:02:13;12.40;99.90
18043;DHT22;9146;48.074;11.968;2022-10-31T09:04:40;12.50;99.90
18043;DHT22;9146;48.074;11.968;2022-10-31T09:07:07;12.60;99.90
18043;DHT22;9146;48.074;11.968;2022-10-31T09:09:34;12.60;99.90
18043;DHT22;9146;48.074;11.968;2022-10-31T09:12:01;12.70;99.90
18043;DHT22;9146;48.074;11.968;2022-10-31T09:14:28;12.80;99.90
18043;DHT22;9146;48.074;11.968;2022-10-31T09:16:56;12.80;99.90
18043;DHT22;9146;48.074;11.968;2022-10-31T09:19:23;12.80;99.90
18043;DHT22;9146;48.074;11.968;2022-10-31T09:21:53;12.80;99.90
18043;DHT22;9146;48.074;11.968;2022-10-31T09:24:20;12.80;99.90
18043;DHT22;9146;48.074;11.968;2022-10-31T09:26:47;12.90;99.90
18043;DHT22;9146;48.074;11.968;2022-10-31T09:29:14;12.90;99.90
18043;DHT22;9146;48.074;11.968;2022-10-31T09:31:40;13.00;99.90
18043;DHT22;9146;48.074;11.968;2022-10-31T09:34:09;13.00;99.90
18043;DHT22;9146;48.074;11.968;2022-10-31T09:36:36;13.10;99.90
18043;DHT22;9146;48.074;11.968;2022-10-31T09:39:03;13.10;99.90
18043;DHT22;9146;48.074;11.968;2022-10-31T09:41:44;13.20;99.90
18043;DHT22;9146;48.074;11.968;2022-10-31T09:44:21;13.30;99.90
18043;DHT22;9146;48.074;11.968;2022-10-31T09:46:57;13.40;99.90
18043;DHT22;9146;48.074;11.968;2022-10-31T09:52:26;13.60;99.90
18043;DHT22;9146;48.074;11.968;2022-10-31T09:54:57;13.70;99.90
18043;DHT22;9146;48.074;11.968;2022-10-31T09:57:35;13.80;99.90
18043;DHT22;9146;48.074;11.968;2022-10-31T10:00:04;13.80;99.90
18043;DHT22;9146;48.074;11.968;2022-10-31T10:02:37;13.90;99.90
18043;DHT22;9146;48.074;11.968;2022-10-31T10:05:10;14.00;99.90
18043;DHT22;9146;48.074;11.968;2022-10-31T10:07:47;14.10;99.90
18043;DHT22;9146;48.074;11.968;2022-10-31T10:10:18;14.30;99.90
18043;DHT22;9146;48.074;11.968;2022-10-31T10:13:02;14.50;99.90
18043;DHT22;9146;48.074;11.968;2022-10-31T10:15:41;14.60;99.90
18043;DHT22;9146;48.074;11.968;2022-10-31T10:18:21;14.80;99.90
18043;DHT22;9146;48.074;11.968;2022-10-31T10:20:59;15.00;99.90
18043;DHT22;9146;48.074;11.968;2022-10-31T10:23:37;15.10;99.90
18043;DHT22;9146;48.074;11.968;2022-10-31T10:26:15;15.30;99.90
18043;DHT22;9146;48.074;11.968;2022-10-31T10:28:45;15.60;99.90
18043;DHT22;9146;48.074;11.968;2022-10-31T10:31:16;15.70;99.90
18043;DHT22;9146;48.074;11.968;2022-10-31T10:33:58;15.90;99.90
18043;DHT22;9146;48.074;11.968;2022-10-31T10:36:30;16.00;99.90
18043;DHT22;9146;48.074;11.968;2022-10-31T10:39:04;16.10;99.90
18043;DHT22;9146;48.074;11.968;2022-10-31T10:41:33;16.30;99.90
18043;DHT22;9146;48.074;11.968;2022-10-31T10:44:00;16.40;99.90
18043;DHT22;9146;48.074;11.968;2022-10-31T10:46:32;16.50;99.90
18043;DHT22;9146;48.074;11.968;2022-10-31T10:49:19;16.60;99.90
18043;DHT22;9146;48.074;11.968;2022-10-31T10:51:56;16.70;99.90
18043;DHT22;9146;48.074;11.968;2022-10-31T10:54:39;16.80;99.90
18043;DHT22;9146;48.074;11.968;2022-10-31T10:57:22;16.90;99.90
18043;DHT22;9146;48.074;11.968;2022-10-31T10:59:49;17.10;99.90
18043;DHT22;9146;48.074;11.968;2022-10-31T11:02:19;17.20;99.90
18043;DHT22;9146;48.074;11.968;2022-10-31T11:04:50;17.30;99.90
18043;DHT22;9146;48.074;11.968;2022-10-31T11:07:17;17.40;99.90
18043;DHT22;9146;48.074;11.968;2022-10-31T11:09:46;17.50;99.90
18043;DHT22;9146;48.074;11.968;2022-10-31T11:12:19;17.60;99.90
18043;DHT22;9146;48.074;11.968;2022-10-31T11:14:50;17.70;99.90
18043;DHT22;9146;48.074;11.968;2022-10-31T11:17:24;17.70;99.90
18043;DHT22;9146;48.074;11.968;2022-10-31T11:20:06;17.80;99.90
18043;DHT22;9146;48.074;11.968;2022-10-31T11:22:45;17.90;99.90
18043;DHT22;9146;48.074;11.968;2022-10-31T11:25:22;18.10;99.90
18043;DHT22;9146;48.074;11.968;2022-10-31T11:27:59;18.10;99.90
18043;DHT22;9146;48.074;11.968;2022-10-31T11:30:26;18.20;99.90
18043;DHT22;9146;48.074;11.968;2022-10-31T11:32:53;18.30;99.90
18043;DHT22;9146;48.074;11.968;2022-10-31T11:35:22;18.30;99.90
18043;DHT22;9146;48.074;11.968;2022-10-31T11:37:52;18.40;99.90
18043;DHT22;9146;48.074;11.968;2022-10-31T11:40:24;18.50;99.90
18043;DHT22;9146;48.074;11.968;2022-10-31T11:42:52;18.60;99.90
18043;DHT22;9146;48.074;11.968;2022-10-31T11:45:36;18.70;99.90
18043;DHT22;9146;48.074;11.968;2022-10-31T11:48:15;18.70;99.90
18043;DHT22;9146;48.074;11.968;2022-10-31T11:50:48;18.80;99.90
18043;DHT22;9146;48.074;11.968;2022-10-31T11:53:18;18.70;99.90
18043;DHT22;9146;48.074;11.968;2022-10-31T11:55:47;18.80;99.90
18043;DHT22;9146;48.074;11.968;2022-10-31T11:58:22;18.80;99.90
18043;DHT22;9146;48.074;11.968;2022-10-31T12:00:51;18.80;99.90
18043;DHT22;9146;48.074;11.968;2022-10-31T12:03:31;18.90;99.90
18043;DHT22;9146;48.074;11.968;2022-10-31T12:06:03;18.80;99.90
18043;DHT22;9146;48.074;11.968;2022-10-31T12:08:33;18.90;99.90
18043;DHT22;9146;48.074;11.968;2022-10-31T12:11:09;18.90;99.90
18043;DHT22;9146;48.074;11.968;2022-10-31T12:13:42;18.90;99.90
18043;DHT22;9146;48.074;11.968;2022-10-31T12:16:18;19.00;99.90
18043;DHT22;9146;48.074;11.968;2022-10-31T12:18:56;19.00;99.90
18043;DHT22;9146;48.074;11.968;2022-10-31T12:21:40;19.10;99.90
18043;DHT22;9146;48.074;11.968;2022-10-31T12:24:21;19.00;99.90
18043;DHT22;9146;48.074;11.968;2022-10-31T12:26:58;19.10;99.90
18043;DHT22;9146;48.074;11.968;2022-10-31T12:29:40;19.10;99.90
18043;DHT22;9146;48.074;11.968;2022-10-31T12:32:22;19.10;99.90
18043;DHT22;9146;48.074;11.968;2022-10-31T12:38:19;19.20;99.90
18043;DHT22;9146;48.074;11.968;2022-10-31T12:40:59;19.30;99.90
18043;DHT22;9146;48.074;11.968;2022-10-31T12:43:36;19.30;99.90
18043;DHT22;9146;48.074;11.968;2022-10-31T12:46:12;19.40;99.90
18043;DHT22;9146;48.074;11.968;2022-10-31T12:51:39;19.40;99.90
18043;DHT22;9146;48.074;11.968;2022-10-31T12:54:29;19.40;99.90
18043;DHT22;9146;48.074;11.968;2022-10-31T12:57:09;19.30;99.90
18043;DHT22;9146;48.074;11.968;2022-10-31T12:59:44;19.30;99.90
18043;DHT22;9146;48.074;11.968;2022-10-31T13:02:18;19.30;99.90
18043;DHT22;9146;48.074;11.968;2022-10-31T13:04:51;19.30;99.90
18043;DHT22;9146;48.074;11.968;2022-10-31T13:07:26;19.20;99.90
18043;DHT22;9146;48.074;11.968;2022-10-31T13:09:59;19.20;99.90
18043;DHT22;9146;48.074;11.968;2022-10-31T13:12:29;19.20;99.90
18043;DHT22;9146;48.074;11.968;2022-10-31T13:15:01;19.10;99.90
18043;DHT22;9146;48.074;11.968;2022-10-31T13:17:36;19.10;99.90
18043;DHT22;9146;48.074;11.968;2022-10-31T13:20:20;19.10;99.90
18043;DHT22;9146;48.074;11.968;2022-10-31T13:22:52;19.10;99.90
18043;DHT22;9146;48.074;11.968;2022-10-31T13:25:23;19.10;99.90
18043;DHT22;9146;48.074;11.968;2022-10-31T13:27:54;19.10;99.90
18043;DHT22;9146;48.074;11.968;2022-10-31T13:30:25;19.10;99.90
18043;DHT22;9146;48.074;11.968;2022-10-31T13:32:59;19.10;99.90
18043;DHT22;9146;48.074;11.968;2022-10-31T13:35:33;19.10;99.90
18043;DHT22;9146;48.074;11.968;2022-10-31T13:38:19;19.10;99.90
18043;DHT22;9146;48.074;11.968;2022-10-31T13:40:53;19.10;99.90
18043;DHT22;9146;48.074;11.968;2022-10-31T13:43:31;19.10;99.90
18043;DHT22;9146;48.074;11.968;2022-10-31T13:46:01;19.10;99.90
18043;DHT22;9146;48.074;11.968;2022-10-31T13:48:36;19.10;99.90
18043;DHT22;9146;48.074;11.968;2022-10-31T13:51:06;19.00;99.90
18043;DHT22;9146;48.074;11.968;2022-10-31T13:53:43;19.00;99.90
18043;DHT22;9146;48.074;11.968;2022-10-31T13:56:22;19.00;99.90
18043;DHT22;9146;48.074;11.968;2022-10-31T13:59:02;19.00;99.90
18043;DHT22;9146;48.074;11.968;2022-10-31T14:01:32;19.00;99.90
18043;DHT22;9146;48.074;11.968;2022-10-31T14:04:03;19.00;99.90
18043;DHT22;9146;48.074;11.968;2022-10-31T14:06:42;18.90;99.90
18043;DHT22;9146;48.074;11.968;2022-10-31T14:09:21;18.90;99.90
18043;DHT22;9146;48.074;11.968;2022-10-31T14:11:50;18.80;99.90
18043;DHT22;9146;48.074;11.968;2022-10-31T14:14:18;18.80;99.90
18043;DHT22;9146;48.074;11.968;2022-10-31T14:16:53;18.70;99.90
18043;DHT22;9146;48.074;11.968;2022-10-31T14:19:21;18.70;99.90
18043;DHT22;9146;48.074;11.968;2022-10-31T14:21:49;18.60;99.90
18043;DHT22;9146;48.074;11.968;2022-10-31T14:24:33;18.50;99.90
18043;DHT22;9146;48.074;11.968;2022-10-31T14:27:02;18.40;99.90
18043;DHT22;9146;48.074;11.968;2022-10-31T14:29:30;18.20;99.90
18043;DHT22;9146;48.074;11.968;2022-10-31T14:32:03;18.10;99.90
18043;DHT22;9146;48.074;11.968;2022-10-31T14:34:38;17.90;99.90
18043;DHT22;9146;48.074;11.968;2022-10-31T14:40:14;17.70;99.90
18043;DHT22;9146;48.074;11.968;2022-10-31T14:43:13;17.60;99.90
18043;DHT22;9146;48.074;11.968;2022-10-31T14:45:49;17.50;99.90
18043;DHT22;9146;48.074;11.968;2022-10-31T14:48:41;17.40;99.90
18043;DHT22;9146;48.074;11.968;2022-10-31T14:51:17;17.30;99.90
18043;DHT22;9146;48.074;11.968;2022-10-31T14:53:47;17.30;99.90
18043;DHT22;9146;48.074;11.968;2022-10-31T14:56:20;17.20;99.90
18043;DHT22;9146;48.074;11.968;2022-10-31T14:58:49;17.10;99.90
18043;DHT22;9146;48.074;11.968;2022-10-31T15:01:21;17.10;99.90
18043;DHT22;9146;48.074;11.968;2022-10-31T15:03:51;17.00;99.90
18043;DHT22;9146;48.074;11.968;2022-10-31T15:06:21;17.00;99.90
18043;DHT22;9146;48.074;11.968;2022-10-31T15:08:49;16.90;99.90
18043;DHT22;9146;48.074;11.968;2022-10-31T15:11:18;16.90;99.90
18043;DHT22;9146;48.074;11.968;2022-10-31T15:13:46;16.80;99.90
18043;DHT22;9146;48.074;11.968;2022-10-31T15:16:15;16.80;99.90
18043;DHT22;9146;48.074;11.968;2022-10-31T15:18:51;16.60;99.90
18043;DHT22;9146;48.074;11.968;2022-10-31T15:21:21;16.60;99.90
18043;DHT22;9146;48.074;11.968;2022-10-31T15:23:50;16.50;99.90
18043;DHT22;9146;48.074;11.968;2022-10-31T15:26:19;16.40;99.90
18043;DHT22;9146;48.074;11.968;2022-10-31T15:28:58;16.30;99.90
18043;DHT22;9146;48.074;11.968;2022-10-31T15:31:26;16.30;99.90
18043;DHT22;9146;48.074;11.968;2022-10-31T15:33:55;16.20;99.90
18043;DHT22;9146;48.074;11.968;2022-10-31T15:36:25;16.10;99.90
18043;DHT22;9146;48.074;11.968;2022-10-31T15:38:52;16.10;99.90
18043;DHT22;9146;48.074;11.968;2022-10-31T15:41:27;15.90;99.90
18043;DHT22;9146;48.074;11.968;2022-10-31T15:44:00;15.90;99.90
18043;DHT22;9146;48.074;11.968;2022-10-31T15:46:27;15.80;99.90
18043;DHT22;9146;48.074;11.968;2022-10-31T15:48:56;15.70;99.90
18043;DHT22;9146;48.074;11.968;2022-10-31T15:51:28;15.70;99.90
18043;DHT22;9146;48.074;11.968;2022-10-31T15:53:58;15.60;99.90
18043;DHT22;9146;48.074;11.968;2022-10-31T15:56:29;15.50;99.90
18043;DHT22;9146;48.074;11.968;2022-10-31T15:58:58;15.40;99.90
18043;DHT22;9146;48.074;11.968;2022-10-31T16:01:27;15.30;99.90
18043;DHT22;9146;48.074;11.968;2022-10-31T16:04:04;15.30;99.90
18043;DHT22;9146;48.074;11.968;2022-10-31T16:06:33;15.10;99.90
18043;DHT22;9146;48.074;11.968;2022-10-31T16:09:01;15.00;99.90
18043;DHT22;9146;48.074;11.968;2022-10-31T16:11:33;14.90;99.90
18043;DHT22;9146;48.074;11.968;2022-10-31T16:14:04;14.80;99.90
18043;DHT22;9146;48.074;11.968;2022-10-31T16:16:33;14.70;99.90